Time;durP1;ratioP1;P1;durP2;ratioP2;P2;SDS_P1;SDS_P2;PMS_P1;PMS_P2;Temp;Humidity;BMP_temperature;BMP_pressure;BME280_temperature;BME280_humidity;BME280_pressure;Samples;Min_cycle;Max_cycle;Signal;HPM_P1;HPM_P2
2021/12/10 00:04:34;;;;;;;18.98;6.75;;;;;;;-0.07;100.00;94436.25;20313126;29;20079;-73
2021/12/10 00:14:36;;;;;;;21.48;5.65;;;;;;;-0.06;100.00;94405.78;20317080;29;20035;-73
2021/12/10 00:24:40;;;;;;;16.73;5.93;;;;;;;0.01;100.00;94377.66;20305317;29;20122;-73
2021/12/10 00:34:49;;;;;;;23.30;5.35;;;;;;;0.04;100.00;94339.91;20320834;29;20584;-73
2021/12/10 00:44:50;;;;;;;25.52;7.13;;;;;;;0.09;100.00;94303.47;20318997;29;20131;-73
2021/12/10 00:54:51;;;;;;;23.27;5.60;;;;;;;0.08;100.00;94300.09;20317252;29;20152;-73
2021/12/10 01:04:57;;;;;;;21.23;6.40;;;;;;;0.07;100.00;94272.50;20300390;29;20051;-73
2021/12/10 01:16:06;;;;;;;20.38;5.50;;;;;;;0.11;100.00;94263.09;20335762;29;20039;-73
2021/12/10 01:25:37;;;;;;;18.92;4.72;;;;;;;0.12;100.00;94243.03;20305613;29;20059;-73
2021/12/10 01:35:43;;;;;;;20.38;4.85;;;;;;;0.09;100.00;94218.34;20323839;29;20377;-74
2021/12/10 01:45:47;;;;;;;20.73;6.07;;;;;;;0.02;100.00;94186.66;20320437;29;20070;-72
2021/12/10 01:55:50;;;;;;;14.88;3.90;;;;;;;0.00;100.00;94160.13;20315189;29;20036;-73
2021/12/10 02:05:51;;;;;;;24.13;4.53;;;;;;;-0.01;100.00;94146.31;20300321;29;20519;-74
2021/12/10 02:15:51;;;;;;;15.13;4.43;;;;;;;0.03;100.00;94120.53;20320194;29;20400;-73
2021/12/10 02:25:52;;;;;;;19.58;4.90;;;;;;;0.01;100.00;94099.19;20328489;29;20122;-73
2021/12/10 02:35:53;;;;;;;21.00;5.10;;;;;;;0.09;100.00;94093.41;20310676;29;20051;-73
2021/12/10 02:45:56;;;;;;;15.57;3.60;;;;;;;0.01;100.00;94077.59;20308863;29;20056;-73
2021/12/10 02:55:58;;;;;;;17.92;5.45;;;;;;;-0.05;100.00;94048.25;20303154;29;20043;-73
2021/12/10 03:05:58;;;;;;;25.75;8.05;;;;;;;-0.05;100.00;94037.81;20297262;29;20143;-73
2021/12/10 03:15:59;;;;;;;18.25;4.32;;;;;;;-0.03;100.00;94027.91;20316861;29;20063;-73
2021/12/10 03:25:59;;;;;;;15.70;4.75;;;;;;;-0.04;100.00;94015.94;20320287;29;21623;-73
2021/12/10 03:36:00;;;;;;;18.23;4.85;;;;;;;-0.10;100.00;93983.22;20307026;29;20721;-73
2021/12/10 03:46:02;;;;;;;19.67;4.88;;;;;;;-0.06;100.00;93972.00;20305405;29;20047;-73
2021/12/10 03:56:13;;;;;;;15.82;5.03;;;;;;;-0.05;100.00;93952.72;20300949;29;20689;-73
2021/12/10 04:06:14;;;;;;;22.65;5.13;;;;;;;-0.16;100.00;93934.88;20308634;29;20051;-72
2021/12/10 04:16:17;;;;;;;22.13;5.60;;;;;;;-0.16;100.00;93922.69;20303485;29;20052;-73
2021/12/10 04:26:21;;;;;;;17.35;5.97;;;;;;;-0.18;100.00;93900.56;20309328;29;20473;-73
2021/12/10 04:36:22;;;;;;;22.65;6.28;;;;;;;-0.18;100.00;93875.34;20302720;29;20516;-73
2021/12/10 04:46:26;;;;;;;18.73;5.93;;;;;;;-0.23;100.00;93839.75;20306995;29;20444;-73
2021/12/10 04:56:27;;;;;;;19.92;5.60;;;;;;;-0.33;100.00;93813.06;20314303;29;20040;-73
2021/12/10 05:06:28;;;;;;;11.95;4.72;;;;;;;-0.39;100.00;93799.34;20303741;29;20036;-73
2021/12/10 05:16:28;;;;;;;22.02;5.10;;;;;;;-0.48;100.00;93772.44;20313651;29;20123;-73
2021/12/10 05:26:29;;;;;;;13.35;4.30;;;;;;;-0.54;100.00;93747.53;20306500;29;20068;-74
2021/12/10 05:36:31;;;;;;;14.40;3.97;;;;;;;-0.55;100.00;93736.38;20328013;29;20164;-73
2021/12/10 05:46:32;;;;;;;15.93;3.63;;;;;;;-0.59;100.00;93724.97;20301014;29;20055;-73
2021/12/10 05:56:32;;;;;;;9.52;3.63;;;;;;;-0.48;100.00;93691.81;20285279;29;20040;-73
2021/12/10 06:06:33;;;;;;;19.00;3.45;;;;;;;-0.57;100.00;93677.88;20302139;29;20059;-73
2021/12/10 06:16:34;;;;;;;13.80;3.83;;;;;;;-0.51;100.00;93668.97;20272506;29;20484;-73
2021/12/10 06:26:35;;;;;;;22.95;5.20;;;;;;;-0.48;100.00;93676.97;20258448;29;20036;-73
2021/12/10 06:36:35;;;;;;;19.30;5.05;;;;;;;-0.47;100.00;93667.34;20273092;29;20507;-74
2021/12/10 06:46:36;;;;;;;17.60;5.25;;;;;;;-0.58;100.00;93660.75;20317233;29;20143;-77
2021/12/10 06:56:37;;;;;;;22.45;5.97;;;;;;;-0.59;100.00;93644.38;20349577;29;20036;-75
2021/12/10 07:06:40;;;;;;;11.98;4.93;;;;;;;-0.61;100.00;93654.28;20322955;29;20055;-76
2021/12/10 07:16:43;;;;;;;12.32;4.55;;;;;;;-0.63;100.00;93627.81;20376404;29;20475;-77
2021/12/10 07:26:44;;;;;;;15.70;4.25;;;;;;;-0.72;100.00;93613.88;20369331;29;20071;-77
2021/12/10 07:36:44;;;;;;;14.90;4.15;;;;;;;-0.65;100.00;93609.13;20379381;29;20055;-76
2021/12/10 07:46:44;;;;;;;17.73;4.63;;;;;;;-0.72;100.00;93593.84;20401181;29;20059;-77
2021/12/10 07:56:45;;;;;;;15.63;3.50;;;;;;;-0.71;100.00;93579.06;20381688;29;20127;-75
2021/12/10 08:06:45;;;;;;;12.85;3.25;;;;;;;-0.65;100.00;93575.31;20385515;29;20058;-75
2021/12/10 08:16:45;;;;;;;15.35;2.55;;;;;;;-0.66;100.00;93571.16;20330393;29;20047;-76
2021/12/10 08:26:46;;;;;;;12.32;3.00;;;;;;;-0.68;100.00;93573.28;20317174;29;20098;-76
2021/12/10 08:36:46;;;;;;;11.68;2.50;;;;;;;-0.81;100.00;93569.56;20321564;29;20062;-75
2021/12/10 08:46:47;;;;;;;10.88;2.45;;;;;;;-0.71;100.00;93555.66;20313290;29;20071;-76
2021/12/10 08:56:48;;;;;;;9.90;2.58;;;;;;;-0.66;100.00;93574.53;20321353;29;20532;-77
2021/12/10 09:06:54;;;;;;;10.35;2.85;;;;;;;-0.49;100.00;93555.84;20322368;29;20058;-77
2021/12/10 09:16:57;;;;;;;8.82;2.75;;;;;;;-0.51;100.00;93549.38;20312694;29;20488;-75
2021/12/10 09:27:00;;;;;;;6.90;2.50;;;;;;;-0.48;100.00;93536.56;20311603;29;21181;-76
2021/12/10 09:37:02;;;;;;;9.23;2.42;;;;;;;-0.44;100.00;93537.56;20328799;29;20051;-78
2021/12/10 09:47:05;;;;;;;8.48;3.03;;;;;;;-0.30;100.00;93542.03;20331847;29;20163;-76
2021/12/10 09:57:14;;;;;;;7.13;2.20;;;;;;;-0.26;100.00;93545.63;20340882;29;20539;-76
2021/12/10 10:07:24;;;;;;;8.82;2.78;;;;;;;-0.29;100.00;93539.13;20317916;29;20051;-78
2021/12/10 10:17:25;;;;;;;8.95;2.58;;;;;;;-0.20;100.00;93536.69;20326272;29;20058;-77
2021/12/10 10:27:30;;;;;;;5.53;2.00;;;;;;;-0.11;100.00;93521.16;20330463;29;20047;-78
2021/12/10 10:37:32;;;;;;;5.85;2.40;;;;;;;-0.12;100.00;93514.41;20319381;29;20056;-77
2021/12/10 10:47:33;;;;;;;6.40;2.17;;;;;;;-0.02;100.00;93509.03;20334918;29;20355;-77
2021/12/10 10:57:33;;;;;;;5.72;2.40;;;;;;;0.06;100.00;93505.00;20324633;29;20040;-77
2021/12/10 11:07:43;;;;;;;5.32;2.20;;;;;;;0.19;100.00;93515.44;20324014;29;20052;-76
2021/12/10 11:17:51;;;;;;;6.00;2.08;;;;;;;0.22;100.00;93513.31;20330879;29;20053;-76
2021/12/10 11:28:02;;;;;;;7.03;2.05;;;;;;;0.44;100.00;93520.44;20467818;23;20054;-78
2021/12/10 11:38:05;;;;;;;6.07;1.85;;;;;;;0.70;100.00;93523.34;20481201;28;20043;-76
2021/12/10 11:48:12;;;;;;;4.05;1.70;;;;;;;0.52;100.00;93525.75;20493911;28;20050;-78
2021/12/10 11:58:15;;;;;;;4.10;1.60;;;;;;;0.63;100.00;93510.69;20490231;28;20037;-78
2021/12/10 12:08:18;;;;;;;6.20;2.10;;;;;;;0.75;100.00;93523.97;20510260;28;20050;-78
2021/12/10 12:18:25;;;;;;;5.38;1.25;;;;;;;0.92;100.00;93530.41;20508913;28;20055;-77
2021/12/10 12:28:27;;;;;;;4.30;1.70;;;;;;;0.84;100.00;93533.72;20509896;28;20039;-77
2021/12/10 12:38:30;;;;;;;5.45;1.63;;;;;;;0.80;100.00;93544.75;20504395;28;21020;-76
2021/12/10 12:48:30;;;;;;;2.83;1.30;;;;;;;0.94;100.00;93557.75;20491647;28;20178;-79
2021/12/10 12:58:48;;;;;;;2.88;1.10;;;;;;;0.88;100.00;93563.34;20524054;28;20038;-78
2021/12/10 13:09:21;;;;;;;3.40;1.13;;;;;;;0.68;100.00;93564.53;20508631;28;20051;-78
2021/12/10 13:19:25;;;;;;;2.88;1.20;;;;;;;0.58;100.00;93579.28;20517326;28;20531;-78
2021/12/10 13:29:27;;;;;;;3.83;1.40;;;;;;;0.68;100.00;93585.38;20518341;28;20090;-77
2021/12/10 13:50:10;;;;;;;4.03;1.95;;;;;;;0.44;100.00;93595.97;20525194;28;20137;-77
2021/12/10 14:00:12;;;;;;;;;;;;;;;0.31;100.00;93613.13;20526083;28;20047;-78
2021/12/10 14:21:03;;;;;;;4.60;2.38;;;;;;;0.26;100.00;93652.25;20538129;28;20063;-76
2021/12/10 14:31:03;;;;;;;4.47;2.30;;;;;;;0.31;100.00;93660.75;20522748;28;20050;-78
2021/12/10 14:41:43;;;;;;;4.60;2.47;;;;;;;0.22;100.00;93665.06;20523014;28;20031;-78
2021/12/10 14:51:44;;;;;;;5.10;2.50;;;;;;;0.14;100.00;93678.72;20452711;28;20710;-79
2021/12/10 15:02:10;;;;;;;5.65;2.78;;;;;;;-0.01;100.00;93695.34;20512201;28;20046;-77
2021/12/10 15:12:11;;;;;;;5.10;2.87;;;;;;;-0.16;100.00;93718.94;20494754;28;20043;-77
2021/12/10 15:22:15;;;;;;;6.03;3.38;;;;;;;-0.29;100.00;93726.41;20527313;28;20414;-78
2021/12/10 15:32:34;;;;;;;7.22;4.00;;;;;;;-0.37;100.00;93737.44;20511301;28;20528;-78
2021/12/10 15:42:35;;;;;;;7.72;4.30;;;;;;;-0.36;100.00;93754.59;20508287;28;20042;-78
2021/12/10 15:52:36;;;;;;;8.60;4.75;;;;;;;-0.43;100.00;93777.56;20491708;28;20047;-78
2021/12/10 16:02:37;;;;;;;8.65;5.40;;;;;;;-0.40;100.00;93792.63;20533755;28;20494;-76
2021/12/10 16:12:40;;;;;;;10.10;6.03;;;;;;;-0.50;100.00;93800.53;20492778;28;20043;-78
2021/12/10 16:22:43;;;;;;;10.77;6.25;;;;;;;-0.59;100.00;93817.78;20497152;28;20099;-77
2021/12/10 16:32:47;;;;;;;8.52;5.13;;;;;;;-0.63;100.00;93840.97;20502327;28;20553;-78
2021/12/10 16:42:58;;;;;;;7.37;4.73;;;;;;;-0.75;100.00;93856.16;20537117;28;20109;-78
2021/12/10 16:52:59;;;;;;;8.88;5.10;;;;;;;-0.79;100.00;93879.31;20514991;28;20546;-75
2021/12/10 17:03:00;;;;;;;9.43;4.90;;;;;;;-0.77;100.00;93889.44;20497744;28;20046;-77
2021/12/10 17:13:09;;;;;;;9.23;5.13;;;;;;;-0.78;100.00;93911.28;20504823;28;20081;-77
2021/12/10 17:23:14;;;;;;;10.05;5.70;;;;;;;-0.76;100.00;93941.13;20506731;28;20050;-76
2021/12/10 17:33:20;;;;;;;10.43;5.30;;;;;;;-0.78;100.00;93965.84;20498887;28;20058;-78
2021/12/10 17:43:24;;;;;;;11.93;6.50;;;;;;;-0.81;100.00;93975.75;20510552;28;20491;-78
2021/12/10 17:53:25;;;;;;;11.07;6.40;;;;;;;-0.87;100.00;94002.03;20486492;28;20050;-78
2021/12/10 18:03:31;;;;;;;11.10;6.30;;;;;;;-0.88;100.00;94024.66;20547891;28;20496;-78
2021/12/10 18:13:34;;;;;;;11.40;6.20;;;;;;;-0.86;100.00;94051.16;20537155;28;20295;-78
2021/12/10 18:23:40;;;;;;;11.75;6.03;;;;;;;-0.97;100.00;94072.25;20499202;28;20055;-73
2021/12/10 18:33:42;;;;;;;;;;;;;;;-0.94;100.00;94095.91;20499446;28;20042;-73
2021/12/10 18:43:47;;;;;;;11.85;6.07;;;;;;;-0.93;100.00;94120.06;20528447;28;20364;-74
2021/12/10 18:53:52;;;;;;;9.20;5.50;;;;;;;-1.03;100.00;94133.84;20499591;28;20101;-73
2021/12/10 19:04:09;;;;;;;11.23;5.85;;;;;;;-0.96;100.00;94154.34;20481212;28;20384;-76
2021/12/10 19:14:12;;;;;;;;;;;;;;;-0.98;100.00;94191.00;20500392;28;20538;-79
2021/12/10 19:24:41;;;;;;;10.13;5.43;;;;;;;-1.06;100.00;94204.53;20491455;28;20020;-77
2021/12/10 19:34:50;;;;;;;9.75;4.78;;;;;;;-1.03;100.00;94217.75;20498382;28;20483;-78
2021/12/10 19:44:57;;;;;;;9.45;5.15;;;;;;;-1.02;100.00;94237.53;20493995;28;20039;-76
2021/12/10 19:55:07;;;;;;;9.45;5.18;;;;;;;-0.95;100.00;94255.44;20491992;28;20047;-77
2021/12/10 20:05:16;;;;;;;10.88;6.13;;;;;;;-0.97;100.00;94280.13;20494530;28;20317;-78
2021/12/10 20:15:58;;;;;;;9.13;5.30;;;;;;;-0.87;100.00;94303.50;20482008;28;20059;-78
2021/12/10 20:26:20;;;;;;;11.73;6.65;;;;;;;-0.88;100.00;94323.53;20453313;28;20055;-76
2021/12/10 20:36:50;;;;;;;15.50;8.23;;;;;;;-0.87;100.00;94350.28;20484161;28;20038;-77
2021/12/10 20:47:00;;;;;;;14.40;6.82;;;;;;;-0.87;100.00;94377.03;20473272;28;20054;-77
2021/12/10 20:57:17;;;;;;;14.25;7.38;;;;;;;-0.89;100.00;94401.75;20476728;28;20275;-75
2021/12/10 21:07:24;;;;;;;11.07;6.57;;;;;;;-0.86;100.00;94430.59;20484012;28;20058;-76
2021/12/10 21:17:37;;;;;;;10.38;5.95;;;;;;;-0.83;100.00;94452.69;20493957;28;20058;-76
2021/12/10 21:27:44;;;;;;;12.60;6.30;;;;;;;-0.88;100.00;94461.25;20490929;28;20035;-75
2021/12/10 21:37:56;;;;;;;13.77;7.15;;;;;;;-0.88;100.00;94483.84;20457383;28;20989;-76
2021/12/10 21:47:57;;;;;;;15.63;8.35;;;;;;;-0.85;100.00;94506.75;20474570;28;20047;-75
2021/12/10 21:57:59;;;;;;;12.55;7.05;;;;;;;-0.87;100.00;94537.41;20487944;28;20063;-76
2021/12/10 22:08:09;;;;;;;17.08;7.30;;;;;;;-0.84;100.00;94557.69;20457143;28;20055;-76
2021/12/10 22:18:21;;;;;;;15.52;7.22;;;;;;;-0.86;100.00;94585.75;20461133;28;20047;-77
2021/12/10 22:28:33;;;;;;;9.93;5.47;;;;;;;-0.84;100.00;94609.66;20444443;28;20391;-75
2021/12/10 22:38:44;;;;;;;11.50;6.25;;;;;;;-0.89;100.00;94626.03;20474781;28;20082;-76
2021/12/10 22:48:50;;;;;;;11.55;5.50;;;;;;;-0.87;100.00;94654.38;20498624;28;20251;-75
2021/12/10 22:58:58;;;;;;;13.00;6.80;;;;;;;-0.83;100.00;94681.41;20484413;28;20109;-75
2021/12/10 23:19:23;;;;;;;18.40;8.45;;;;;;;-0.88;100.00;94726.38;20576110;28;20423;-76
2021/12/10 23:29:28;;;;;;;27.15;11.25;;;;;;;-0.89;100.00;94742.22;20600578;28;20049;-75
2021/12/10 23:50:21;;;;;;;29.27;11.30;;;;;;;-0.88;100.00;94791.34;20575226;28;20051;-76
